createdAt,value
2017-10-16T00:00:30.246Z,33.33
2017-10-16T00:05:32.124Z,29.73
2017-10-16T00:10:34.001Z,32.60
2017-10-16T00:15:35.880Z,33.63
2017-10-16T00:20:37.971Z,32.90
2017-10-16T00:25:39.942Z,37.57
2017-10-16T00:30:41.819Z,34.27
2017-10-16T00:35:43.696Z,36.77
2017-10-16T00:40:45.581Z,33.20
2017-10-16T00:45:50.320Z,28.10
2017-10-16T00:50:52.196Z,32.07
2017-10-16T00:55:54.279Z,35.97
2017-10-16T01:00:56.361Z,30.77
2017-10-16T01:05:58.239Z,28.27
2017-10-16T01:11:00.321Z,31.43
2017-10-16T01:16:03.530Z,27.87
2017-10-16T01:21:05.613Z,27.03
2017-10-16T01:26:07.694Z,31.20
2017-10-16T01:31:09.880Z,50.17
2017-10-16T01:36:12.986Z,44.63
2017-10-16T01:41:15.068Z,41.83
2017-10-16T01:46:17.965Z,36.67
2017-10-16T01:51:20.974Z,39.50
2017-10-16T01:56:24.160Z,37.97
2017-10-16T02:01:26.367Z,30.87
2017-10-16T02:06:28.450Z,33.63
2017-10-16T02:11:30.327Z,26.40
2017-10-16T02:16:32.208Z,30.97
2017-10-16T02:21:34.187Z,32.33
2017-10-16T02:26:36.062Z,33.40
2017-10-16T02:31:38.964Z,30.97
2017-10-16T02:36:44.852Z,31.07
2017-10-16T02:41:49.447Z,32.10
2017-10-16T02:46:53.260Z,36.83
2017-10-16T02:51:58.973Z,31.30
2017-10-16T02:57:01.772Z,28.33
2017-10-16T03:02:06.018Z,30.60
2017-10-16T03:07:08.681Z,27.70
2017-10-16T03:12:11.341Z,29.23
2017-10-16T03:17:13.810Z,27.53
2017-10-16T03:22:16.328Z,30.50
2017-10-16T03:27:19.036Z,29.97
2017-10-16T03:32:21.053Z,33.77
2017-10-16T03:37:22.932Z,39.03
2017-10-16T03:42:24.911Z,33.40
2017-10-16T03:47:26.996Z,32.60
2017-10-16T03:52:29.076Z,35.50
2017-10-16T03:57:30.955Z,33.10
2017-10-16T04:02:38.360Z,43.50
2017-10-16T04:07:40.444Z,44.63
2017-10-16T04:12:42.320Z,50.00
2017-10-16T04:17:44.403Z,71.30
2017-10-16T04:22:46.260Z,60.43
2017-10-16T04:27:48.162Z,73.50
2017-10-16T04:32:50.036Z,55.53
2017-10-16T04:37:51.914Z,47.30
2017-10-16T04:42:54.406Z,45.90
2017-10-16T04:47:56.282Z,48.97
2017-10-16T04:52:58.160Z,61.00
2017-10-16T04:58:00.038Z,50.90
2017-10-16T05:03:01.918Z,53.87
2017-10-16T05:08:03.794Z,53.20
2017-10-16T05:13:05.671Z,69.80
2017-10-16T05:18:07.555Z,55.93
2017-10-16T16:55:20.788Z,16.17
2017-10-16T17:00:21.842Z,14.17
2017-10-16T17:05:22.897Z,15.90
2017-10-16T17:10:24.981Z,22.90
2017-10-16T17:15:26.030Z,23.20
2017-10-16T17:20:27.098Z,15.57
2017-10-16T17:25:28.168Z,17.03
2017-10-16T17:30:29.222Z,17.43
2017-10-16T17:35:30.282Z,15.37
2017-10-16T17:40:31.357Z,18.80
2017-10-16T17:45:32.492Z,25.73
2017-10-16T17:50:38.558Z,23.00
2017-10-16T17:55:40.645Z,18.07
2017-10-16T18:00:41.709Z,16.83
2017-10-16T18:05:42.765Z,23.00
2017-10-16T18:10:45.881Z,19.20
2017-10-16T18:15:46.924Z,17.50
2017-10-16T18:20:48.007Z,16.27
2017-10-16T18:25:49.151Z,24.90
2017-10-16T18:30:50.229Z,27.53
2017-10-16T18:35:52.311Z,23.23
2017-10-16T18:40:53.355Z,29.43
2017-10-16T18:45:55.422Z,22.80
2017-10-16T18:50:58.551Z,21.50
2017-10-16T18:56:00.642Z,18.03
2017-10-16T19:01:01.703Z,28.57
2017-10-16T19:06:02.745Z,34.03
2017-10-16T19:11:05.766Z,24.23
2017-10-16T19:16:06.848Z,19.60
2017-10-16T19:21:08.923Z,22.97
2017-10-16T19:26:09.929Z,19.30
2017-10-16T19:31:13.065Z,23.57
2017-10-16T19:36:14.116Z,26.17
2017-10-16T19:41:15.162Z,34.80
2017-10-16T19:46:17.271Z,37.33
2017-10-16T19:51:19.326Z,21.93
2017-10-16T19:56:20.401Z,29.43
2017-10-16T20:01:22.486Z,27.73
2017-10-16T20:06:23.642Z,29.70
2017-10-16T20:11:24.692Z,24.77
2017-10-16T20:16:26.785Z,25.10
2017-10-16T20:21:27.929Z,29.37
2017-10-16T20:26:29.002Z,25.10
2017-10-16T20:31:31.186Z,27.20
2017-10-16T20:36:34.189Z,23.50
2017-10-16T20:41:35.242Z,21.40
2017-10-16T20:46:38.353Z,17.60
2017-10-16T20:51:39.454Z,18.30
2017-10-16T20:56:41.493Z,23.97
2017-10-16T21:01:42.568Z,22.53
2017-10-16T21:06:43.727Z,19.13
2017-10-16T21:11:44.774Z,22.30
2017-10-16T21:16:46.845Z,19.67
2017-10-16T21:21:48.954Z,27.33
2017-10-16T21:26:49.984Z,18.97
2017-10-16T21:31:51.052Z,18.40
2017-10-16T21:36:53.130Z,16.90
2017-10-16T21:41:54.297Z,23.60
2017-10-16T21:46:55.358Z,18.23
2017-10-16T21:52:08.499Z,16.20
2017-10-16T21:57:09.522Z,18.60
2017-10-16T22:02:10.613Z,17.50
2017-10-16T22:07:12.683Z,22.00
2017-10-16T22:12:13.746Z,14.60
2017-10-16T22:17:14.809Z,18.40
2017-10-16T22:22:15.861Z,20.20
2017-10-16T22:27:18.670Z,21.03
2017-10-16T22:32:19.722Z,31.27
2017-10-16T22:37:20.791Z,20.80
2017-10-16T22:42:21.835Z,15.73
2017-10-16T22:47:29.676Z,15.40
2017-10-16T22:52:30.698Z,15.10
2017-10-16T22:57:32.486Z,15.37
2017-10-16T23:02:33.545Z,18.27
2017-10-16T23:07:34.713Z,20.17
2017-10-16T23:12:36.777Z,26.03
2017-10-16T23:17:37.853Z,19.67
2017-10-16T23:22:38.920Z,18.80
2017-10-16T23:27:41.153Z,25.10
2017-10-16T23:32:42.273Z,19.77
2017-10-16T23:37:44.343Z,25.27
2017-10-16T23:42:45.390Z,18.83
2017-10-16T23:47:47.537Z,22.97
2017-10-16T23:52:49.541Z,18.30
2017-10-16T23:57:50.625Z,27.30
